sensor_id;sensor_type;location;lat;lon;timestamp;P1;durP1;ratioP1;P2;durP2;ratioP2
70675;SDS011;59069;52.242;20.900;2022-07-05T00:00:39;13.63;;;9.30;;
70675;SDS011;59069;52.242;20.900;2022-07-05T00:03:04;12.30;;;9.37;;
70675;SDS011;59069;52.242;20.900;2022-07-05T00:05:30;12.83;;;8.90;;
70675;SDS011;59069;52.242;20.900;2022-07-05T00:07:55;11.90;;;9.38;;
70675;SDS011;59069;52.242;20.900;2022-07-05T00:10:20;11.60;;;8.53;;
70675;SDS011;59069;52.242;20.900;2022-07-05T00:12:46;13.80;;;9.20;;
70675;SDS011;59069;52.242;20.900;2022-07-05T00:15:11;10.30;;;8.10;;
70675;SDS011;59069;52.242;20.900;2022-07-05T00:17:37;13.60;;;8.40;;
70675;SDS011;59069;52.242;20.900;2022-07-05T00:20:02;11.77;;;7.70;;
70675;SDS011;59069;52.242;20.900;2022-07-05T00:22:28;11.50;;;7.82;;
70675;SDS011;59069;52.242;20.900;2022-07-05T00:24:54;11.53;;;7.47;;
70675;SDS011;59069;52.242;20.900;2022-07-05T00:27:19;12.70;;;7.67;;
70675;SDS011;59069;52.242;20.900;2022-07-05T00:29:44;11.00;;;7.37;;
70675;SDS011;59069;52.242;20.900;2022-07-05T00:32:10;11.82;;;7.15;;
70675;SDS011;59069;52.242;20.900;2022-07-05T00:34:35;12.83;;;8.10;;
70675;SDS011;59069;52.242;20.900;2022-07-05T00:37:01;10.70;;;7.10;;
70675;SDS011;59069;52.242;20.900;2022-07-05T00:39:26;10.23;;;7.00;;
70675;SDS011;59069;52.242;20.900;2022-07-05T00:41:52;10.97;;;7.70;;
70675;SDS011;59069;52.242;20.900;2022-07-05T00:44:27;10.15;;;7.20;;
70675;SDS011;59069;52.242;20.900;2022-07-05T00:46:57;10.70;;;7.37;;
70675;SDS011;59069;52.242;20.900;2022-07-05T00:49:22;11.40;;;7.63;;
70675;SDS011;59069;52.242;20.900;2022-07-05T00:51:48;11.07;;;7.87;;
70675;SDS011;59069;52.242;20.900;2022-07-05T00:54:13;15.07;;;10.07;;
70675;SDS011;59069;52.242;20.900;2022-07-05T00:56:39;12.73;;;8.73;;
70675;SDS011;59069;52.242;20.900;2022-07-05T00:59:04;12.63;;;8.57;;
70675;SDS011;59069;52.242;20.900;2022-07-05T01:01:29;12.00;;;7.57;;
70675;SDS011;59069;52.242;20.900;2022-07-05T01:03:55;10.93;;;7.75;;
70675;SDS011;59069;52.242;20.900;2022-07-05T01:06:20;13.27;;;8.43;;
70675;SDS011;59069;52.242;20.900;2022-07-05T01:08:46;11.47;;;8.40;;
70675;SDS011;59069;52.242;20.900;2022-07-05T01:11:12;13.77;;;8.30;;
70675;SDS011;59069;52.242;20.900;2022-07-05T01:13:39;12.87;;;8.20;;
70675;SDS011;59069;52.242;20.900;2022-07-05T01:16:04;13.30;;;7.90;;
70675;SDS011;59069;52.242;20.900;2022-07-05T01:18:30;13.60;;;8.33;;
70675;SDS011;59069;52.242;20.900;2022-07-05T01:20:57;12.75;;;8.60;;
70675;SDS011;59069;52.242;20.900;2022-07-05T01:23:26;11.27;;;8.15;;
70675;SDS011;59069;52.242;20.900;2022-07-05T01:25:54;14.18;;;8.52;;
70675;SDS011;59069;52.242;20.900;2022-07-05T01:28:20;14.48;;;8.82;;
70675;SDS011;59069;52.242;20.900;2022-07-05T01:30:45;12.50;;;7.83;;
70675;SDS011;59069;52.242;20.900;2022-07-05T01:33:12;14.73;;;8.45;;
70675;SDS011;59069;52.242;20.900;2022-07-05T01:35:37;12.80;;;7.80;;
70675;SDS011;59069;52.242;20.900;2022-07-05T01:38:03;13.30;;;7.97;;
70675;SDS011;59069;52.242;20.900;2022-07-05T01:40:28;13.45;;;8.15;;
70675;SDS011;59069;52.242;20.900;2022-07-05T01:42:54;13.20;;;7.90;;
70675;SDS011;59069;52.242;20.900;2022-07-05T01:45:20;12.83;;;7.93;;
70675;SDS011;59069;52.242;20.900;2022-07-05T01:48:06;13.38;;;7.88;;
70675;SDS011;59069;52.242;20.900;2022-07-05T01:50:33;11.52;;;7.07;;
70675;SDS011;59069;52.242;20.900;2022-07-05T01:53:03;10.63;;;6.93;;
70675;SDS011;59069;52.242;20.900;2022-07-05T01:55:29;12.23;;;7.78;;
70675;SDS011;59069;52.242;20.900;2022-07-05T01:57:54;9.67;;;6.87;;
70675;SDS011;59069;52.242;20.900;2022-07-05T02:00:19;11.93;;;7.07;;
70675;SDS011;59069;52.242;20.900;2022-07-05T02:02:45;11.53;;;7.40;;
70675;SDS011;59069;52.242;20.900;2022-07-05T02:05:11;11.15;;;7.30;;
70675;SDS011;59069;52.242;20.900;2022-07-05T02:07:37;10.90;;;7.50;;
70675;SDS011;59069;52.242;20.900;2022-07-05T02:10:11;15.80;;;7.97;;
70675;SDS011;59069;52.242;20.900;2022-07-05T02:12:37;9.87;;;7.13;;
70675;SDS011;59069;52.242;20.900;2022-07-05T02:15:02;9.47;;;6.97;;
70675;SDS011;59069;52.242;20.900;2022-07-05T02:17:27;11.93;;;6.83;;
70675;SDS011;59069;52.242;20.900;2022-07-05T02:19:53;10.73;;;7.20;;
70675;SDS011;59069;52.242;20.900;2022-07-05T02:22:18;11.57;;;7.28;;
70675;SDS011;59069;52.242;20.900;2022-07-05T02:24:44;9.90;;;6.83;;
70675;SDS011;59069;52.242;20.900;2022-07-05T02:27:09;9.90;;;7.27;;
70675;SDS011;59069;52.242;20.900;2022-07-05T02:29:34;10.17;;;7.17;;
70675;SDS011;59069;52.242;20.900;2022-07-05T02:32:00;11.17;;;6.93;;
70675;SDS011;59069;52.242;20.900;2022-07-05T02:34:25;11.67;;;7.47;;
70675;SDS011;59069;52.242;20.900;2022-07-05T02:36:51;11.20;;;7.50;;
70675;SDS011;59069;52.242;20.900;2022-07-05T02:39:17;10.52;;;7.25;;
70675;SDS011;59069;52.242;20.900;2022-07-05T02:41:42;9.77;;;6.90;;
70675;SDS011;59069;52.242;20.900;2022-07-05T02:44:08;11.47;;;6.97;;
70675;SDS011;59069;52.242;20.900;2022-07-05T02:46:33;10.80;;;6.53;;
70675;SDS011;59069;52.242;20.900;2022-07-05T02:48:58;9.30;;;6.37;;
70675;SDS011;59069;52.242;20.900;2022-07-05T02:51:24;9.90;;;7.20;;
70675;SDS011;59069;52.242;20.900;2022-07-05T02:53:49;10.23;;;6.10;;
70675;SDS011;59069;52.242;20.900;2022-07-05T02:56:14;10.47;;;6.43;;
70675;SDS011;59069;52.242;20.900;2022-07-05T02:58:40;10.05;;;5.97;;
70675;SDS011;59069;52.242;20.900;2022-07-05T03:01:05;11.40;;;6.20;;
70675;SDS011;59069;52.242;20.900;2022-07-05T03:03:31;10.13;;;5.80;;
70675;SDS011;59069;52.242;20.900;2022-07-05T03:05:56;9.63;;;5.80;;
70675;SDS011;59069;52.242;20.900;2022-07-05T03:08:21;10.63;;;6.20;;
70675;SDS011;59069;52.242;20.900;2022-07-05T03:10:47;9.93;;;5.93;;
70675;SDS011;59069;52.242;20.900;2022-07-05T03:13:12;14.43;;;8.67;;
70675;SDS011;59069;52.242;20.900;2022-07-05T03:15:38;10.03;;;6.50;;
70675;SDS011;59069;52.242;20.900;2022-07-05T03:18:03;8.90;;;5.57;;
70675;SDS011;59069;52.242;20.900;2022-07-05T03:20:28;9.95;;;5.90;;
70675;SDS011;59069;52.242;20.900;2022-07-05T03:22:54;8.93;;;5.27;;
70675;SDS011;59069;52.242;20.900;2022-07-05T03:25:19;8.10;;;4.87;;
70675;SDS011;59069;52.242;20.900;2022-07-05T03:27:45;8.13;;;4.90;;
70675;SDS011;59069;52.242;20.900;2022-07-05T03:30:10;8.30;;;4.97;;
70675;SDS011;59069;52.242;20.900;2022-07-05T03:32:36;8.15;;;5.30;;
70675;SDS011;59069;52.242;20.900;2022-07-05T03:35:02;7.47;;;4.53;;
70675;SDS011;59069;52.242;20.900;2022-07-05T03:37:27;8.13;;;4.60;;
70675;SDS011;59069;52.242;20.900;2022-07-05T03:39:53;7.57;;;4.72;;
70675;SDS011;59069;52.242;20.900;2022-07-05T03:42:18;9.53;;;5.50;;
70675;SDS011;59069;52.242;20.900;2022-07-05T03:44:43;7.90;;;4.50;;
70675;SDS011;59069;52.242;20.900;2022-07-05T03:47:09;8.23;;;4.37;;
70675;SDS011;59069;52.242;20.900;2022-07-05T03:49:34;6.33;;;4.20;;
70675;SDS011;59069;52.242;20.900;2022-07-05T03:52:00;7.70;;;4.30;;
70675;SDS011;59069;52.242;20.900;2022-07-05T03:54:25;8.10;;;4.10;;
70675;SDS011;59069;52.242;20.900;2022-07-05T03:56:50;7.73;;;3.93;;
70675;SDS011;59069;52.242;20.900;2022-07-05T03:59:16;9.23;;;4.07;;
70675;SDS011;59069;52.242;20.900;2022-07-05T04:01:41;7.40;;;4.25;;
70675;SDS011;59069;52.242;20.900;2022-07-05T04:04:06;6.83;;;4.37;;
70675;SDS011;59069;52.242;20.900;2022-07-05T04:06:32;8.17;;;4.33;;
70675;SDS011;59069;52.242;20.900;2022-07-05T04:08:57;6.80;;;4.13;;
70675;SDS011;59069;52.242;20.900;2022-07-05T04:11:23;9.03;;;5.00;;
70675;SDS011;59069;52.242;20.900;2022-07-05T04:13:48;7.33;;;4.17;;
70675;SDS011;59069;52.242;20.900;2022-07-05T04:16:13;6.87;;;4.07;;
70675;SDS011;59069;52.242;20.900;2022-07-05T04:18:39;7.13;;;3.77;;
70675;SDS011;59069;52.242;20.900;2022-07-05T04:21:04;7.67;;;3.97;;
70675;SDS011;59069;52.242;20.900;2022-07-05T04:23:30;6.63;;;3.90;;
70675;SDS011;59069;52.242;20.900;2022-07-05T04:25:55;7.70;;;3.90;;
70675;SDS011;59069;52.242;20.900;2022-07-05T04:28:21;7.93;;;4.10;;
70675;SDS011;59069;52.242;20.900;2022-07-05T04:30:46;7.95;;;3.78;;
70675;SDS011;59069;52.242;20.900;2022-07-05T04:33:12;8.67;;;3.50;;
70675;SDS011;59069;52.242;20.900;2022-07-05T04:35:37;6.90;;;3.73;;
70675;SDS011;59069;52.242;20.900;2022-07-05T04:38:03;6.57;;;3.65;;
70675;SDS011;59069;52.242;20.900;2022-07-05T04:40:29;7.67;;;3.67;;
70675;SDS011;59069;52.242;20.900;2022-07-05T04:42:54;8.27;;;3.75;;
70675;SDS011;59069;52.242;20.900;2022-07-05T04:45:20;8.77;;;3.87;;
70675;SDS011;59069;52.242;20.900;2022-07-05T04:47:45;8.30;;;3.90;;
70675;SDS011;59069;52.242;20.900;2022-07-05T04:50:10;7.20;;;3.30;;
70675;SDS011;59069;52.242;20.900;2022-07-05T04:52:36;6.15;;;3.28;;
70675;SDS011;59069;52.242;20.900;2022-07-05T04:55:02;7.60;;;3.67;;
70675;SDS011;59069;52.242;20.900;2022-07-05T04:57:27;8.70;;;4.95;;
70675;SDS011;59069;52.242;20.900;2022-07-05T05:00:00;7.18;;;3.53;;
70675;SDS011;59069;52.242;20.900;2022-07-05T05:02:26;6.40;;;3.30;;
70675;SDS011;59069;52.242;20.900;2022-07-05T05:04:51;8.20;;;3.73;;
70675;SDS011;59069;52.242;20.900;2022-07-05T05:07:16;7.80;;;3.50;;
70675;SDS011;59069;52.242;20.900;2022-07-05T05:09:42;22.50;;;15.20;;
70675;SDS011;59069;52.242;20.900;2022-07-05T05:12:07;9.53;;;4.30;;
70675;SDS011;59069;52.242;20.900;2022-07-05T05:14:33;7.80;;;4.43;;
70675;SDS011;59069;52.242;20.900;2022-07-05T05:16:58;8.70;;;4.00;;
70675;SDS011;59069;52.242;20.900;2022-07-05T05:19:24;6.63;;;3.60;;
70675;SDS011;59069;52.242;20.900;2022-07-05T05:21:49;7.40;;;3.70;;
70675;SDS011;59069;52.242;20.900;2022-07-05T05:24:14;7.33;;;3.87;;
70675;SDS011;59069;52.242;20.900;2022-07-05T05:26:40;9.67;;;3.70;;
70675;SDS011;59069;52.242;20.900;2022-07-05T05:29:05;16.37;;;9.47;;
70675;SDS011;59069;52.242;20.900;2022-07-05T05:31:30;8.10;;;4.13;;
70675;SDS011;59069;52.242;20.900;2022-07-05T05:33:56;7.25;;;3.40;;
70675;SDS011;59069;52.242;20.900;2022-07-05T05:36:21;11.07;;;3.73;;
70675;SDS011;59069;52.242;20.900;2022-07-05T05:38:47;7.30;;;3.87;;
70675;SDS011;59069;52.242;20.900;2022-07-05T05:41:12;6.37;;;3.40;;
70675;SDS011;59069;52.242;20.900;2022-07-05T05:43:37;6.82;;;3.78;;
70675;SDS011;59069;52.242;20.900;2022-07-05T05:46:03;10.43;;;3.33;;
70675;SDS011;59069;52.242;20.900;2022-07-05T05:48:28;8.13;;;3.70;;
70675;SDS011;59069;52.242;20.900;2022-07-05T05:50:54;8.17;;;3.80;;
70675;SDS011;59069;52.242;20.900;2022-07-05T05:53:19;10.65;;;3.85;;
70675;SDS011;59069;52.242;20.900;2022-07-05T05:55:44;6.93;;;3.20;;
70675;SDS011;59069;52.242;20.900;2022-07-05T05:58:13;8.27;;;3.67;;
70675;SDS011;59069;52.242;20.900;2022-07-05T06:00:39;9.45;;;3.70;;
70675;SDS011;59069;52.242;20.900;2022-07-05T06:03:05;8.17;;;3.60;;
70675;SDS011;59069;52.242;20.900;2022-07-05T06:05:30;8.70;;;3.70;;
70675;SDS011;59069;52.242;20.900;2022-07-05T06:07:56;9.50;;;4.33;;
70675;SDS011;59069;52.242;20.900;2022-07-05T06:10:22;9.40;;;4.00;;
70675;SDS011;59069;52.242;20.900;2022-07-05T06:12:49;9.05;;;3.95;;
70675;SDS011;59069;52.242;20.900;2022-07-05T06:15:16;11.88;;;3.58;;
70675;SDS011;59069;52.242;20.900;2022-07-05T06:17:43;7.07;;;3.67;;
70675;SDS011;59069;52.242;20.900;2022-07-05T06:20:12;7.00;;;3.70;;
70675;SDS011;59069;52.242;20.900;2022-07-05T06:22:39;8.18;;;4.22;;
70675;SDS011;59069;52.242;20.900;2022-07-05T06:25:05;9.83;;;4.23;;
70675;SDS011;59069;52.242;20.900;2022-07-05T06:27:31;9.85;;;3.75;;
70675;SDS011;59069;52.242;20.900;2022-07-05T06:29:57;8.17;;;3.73;;
70675;SDS011;59069;52.242;20.900;2022-07-05T06:32:23;9.60;;;3.85;;
70675;SDS011;59069;52.242;20.900;2022-07-05T06:34:48;8.88;;;3.50;;
70675;SDS011;59069;52.242;20.900;2022-07-05T06:37:14;8.93;;;4.37;;
70675;SDS011;59069;52.242;20.900;2022-07-05T06:39:39;15.10;;;9.07;;
70675;SDS011;59069;52.242;20.900;2022-07-05T06:42:05;7.20;;;4.07;;
70675;SDS011;59069;52.242;20.900;2022-07-05T06:44:30;9.80;;;4.03;;
70675;SDS011;59069;52.242;20.900;2022-07-05T06:46:55;7.33;;;3.90;;
70675;SDS011;59069;52.242;20.900;2022-07-05T06:49:21;7.37;;;3.63;;
70675;SDS011;59069;52.242;20.900;2022-07-05T06:51:46;7.93;;;3.60;;
70675;SDS011;59069;52.242;20.900;2022-07-05T06:54:12;8.70;;;3.80;;
70675;SDS011;59069;52.242;20.900;2022-07-05T06:56:37;9.90;;;4.13;;
70675;SDS011;59069;52.242;20.900;2022-07-05T06:59:02;8.27;;;3.97;;
70675;SDS011;59069;52.242;20.900;2022-07-05T07:01:28;8.40;;;3.90;;
70675;SDS011;59069;52.242;20.900;2022-07-05T07:03:53;9.57;;;3.93;;
70675;SDS011;59069;52.242;20.900;2022-07-05T07:06:19;10.00;;;4.20;;
70675;SDS011;59069;52.242;20.900;2022-07-05T07:08:44;10.23;;;4.87;;
70675;SDS011;59069;52.242;20.900;2022-07-05T07:11:49;6.20;;;3.42;;
70675;SDS011;59069;52.242;20.900;2022-07-05T07:14:15;9.10;;;3.93;;
70675;SDS011;59069;52.242;20.900;2022-07-05T07:16:41;7.35;;;3.30;;
70675;SDS011;59069;52.242;20.900;2022-07-05T07:19:07;6.85;;;3.45;;
70675;SDS011;59069;52.242;20.900;2022-07-05T07:21:33;7.73;;;3.77;;
70675;SDS011;59069;52.242;20.900;2022-07-05T07:23:58;8.60;;;4.30;;
70675;SDS011;59069;52.242;20.900;2022-07-05T07:26:23;11.17;;;4.10;;
70675;SDS011;59069;52.242;20.900;2022-07-05T07:28:49;8.37;;;3.70;;
70675;SDS011;59069;52.242;20.900;2022-07-05T07:31:14;11.63;;;3.60;;
70675;SDS011;59069;52.242;20.900;2022-07-05T07:33:40;10.65;;;5.47;;
70675;SDS011;59069;52.242;20.900;2022-07-05T07:36:05;16.17;;;10.73;;
70675;SDS011;59069;52.242;20.900;2022-07-05T07:38:30;9.83;;;4.13;;
70675;SDS011;59069;52.242;20.900;2022-07-05T07:40:56;8.37;;;4.60;;
70675;SDS011;59069;52.242;20.900;2022-07-05T07:43:21;11.45;;;6.57;;
70675;SDS011;59069;52.242;20.900;2022-07-05T07:45:47;8.97;;;3.50;;
70675;SDS011;59069;52.242;20.900;2022-07-05T07:48:13;9.65;;;4.03;;
70675;SDS011;59069;52.242;20.900;2022-07-05T07:50:38;7.63;;;3.63;;
70675;SDS011;59069;52.242;20.900;2022-07-05T07:53:04;11.07;;;4.47;;
70675;SDS011;59069;52.242;20.900;2022-07-05T07:55:29;8.00;;;4.13;;
70675;SDS011;59069;52.242;20.900;2022-07-05T07:57:55;8.97;;;3.97;;
70675;SDS011;59069;52.242;20.900;2022-07-05T08:00:20;7.27;;;3.80;;
70675;SDS011;59069;52.242;20.900;2022-07-05T08:02:45;8.70;;;3.97;;
70675;SDS011;59069;52.242;20.900;2022-07-05T08:05:11;7.22;;;3.70;;
70675;SDS011;59069;52.242;20.900;2022-07-05T08:07:36;8.90;;;3.93;;
70675;SDS011;59069;52.242;20.900;2022-07-05T08:10:03;9.17;;;4.23;;
70675;SDS011;59069;52.242;20.900;2022-07-05T08:12:32;8.10;;;3.33;;
70675;SDS011;59069;52.242;20.900;2022-07-05T08:14:58;6.47;;;3.33;;
70675;SDS011;59069;52.242;20.900;2022-07-05T08:17:24;8.67;;;3.73;;
70675;SDS011;59069;52.242;20.900;2022-07-05T08:19:49;8.85;;;3.97;;
70675;SDS011;59069;52.242;20.900;2022-07-05T08:22:33;8.07;;;3.37;;
70675;SDS011;59069;52.242;20.900;2022-07-05T08:24:59;7.38;;;3.30;;
70675;SDS011;59069;52.242;20.900;2022-07-05T08:27:24;9.27;;;3.80;;
70675;SDS011;59069;52.242;20.900;2022-07-05T08:29:50;10.60;;;4.00;;
70675;SDS011;59069;52.242;20.900;2022-07-05T08:32:16;8.40;;;3.50;;
70675;SDS011;59069;52.242;20.900;2022-07-05T08:34:42;7.60;;;3.42;;
70675;SDS011;59069;52.242;20.900;2022-07-05T08:37:07;7.67;;;4.03;;
70675;SDS011;59069;52.242;20.900;2022-07-05T08:39:33;9.53;;;4.00;;
70675;SDS011;59069;52.242;20.900;2022-07-05T08:41:58;6.90;;;3.60;;
70675;SDS011;59069;52.242;20.900;2022-07-05T08:44:24;11.63;;;4.03;;
70675;SDS011;59069;52.242;20.900;2022-07-05T08:46:53;8.30;;;3.70;;
70675;SDS011;59069;52.242;20.900;2022-07-05T08:49:27;10.93;;;3.97;;
70675;SDS011;59069;52.242;20.900;2022-07-05T08:51:53;8.57;;;4.35;;
70675;SDS011;59069;52.242;20.900;2022-07-05T08:54:20;13.75;;;4.70;;
70675;SDS011;59069;52.242;20.900;2022-07-05T08:56:47;8.27;;;4.40;;
70675;SDS011;59069;52.242;20.900;2022-07-05T08:59:12;10.37;;;4.53;;
70675;SDS011;59069;52.242;20.900;2022-07-05T09:01:38;9.87;;;5.37;;
70675;SDS011;59069;52.242;20.900;2022-07-05T09:04:05;8.45;;;4.35;;
70675;SDS011;59069;52.242;20.900;2022-07-05T09:06:32;11.98;;;5.32;;
70675;SDS011;59069;52.242;20.900;2022-07-05T09:09:01;9.27;;;4.40;;
70675;SDS011;59069;52.242;20.900;2022-07-05T09:11:34;10.53;;;4.43;;
70675;SDS011;59069;52.242;20.900;2022-07-05T09:14:15;12.43;;;4.53;;
70675;SDS011;59069;52.242;20.900;2022-07-05T09:16:44;12.25;;;4.78;;
70675;SDS011;59069;52.242;20.900;2022-07-05T09:19:09;12.30;;;4.70;;
70675;SDS011;59069;52.242;20.900;2022-07-05T09:21:35;8.38;;;4.15;;
70675;SDS011;59069;52.242;20.900;2022-07-05T09:24:01;7.87;;;4.07;;
70675;SDS011;59069;52.242;20.900;2022-07-05T09:29:04;10.43;;;3.80;;
70675;SDS011;59069;52.242;20.900;2022-07-05T09:31:35;7.53;;;3.40;;
70675;SDS011;59069;52.242;20.900;2022-07-05T09:34:06;10.10;;;3.45;;
70675;SDS011;59069;52.242;20.900;2022-07-05T09:39:15;7.95;;;3.50;;
70675;SDS011;59069;52.242;20.900;2022-07-05T09:41:41;7.20;;;3.87;;
70675;SDS011;59069;52.242;20.900;2022-07-05T09:44:06;10.02;;;4.60;;
70675;SDS011;59069;52.242;20.900;2022-07-05T09:46:32;9.47;;;4.57;;
70675;SDS011;59069;52.242;20.900;2022-07-05T09:48:57;9.23;;;4.50;;
70675;SDS011;59069;52.242;20.900;2022-07-05T09:51:23;10.37;;;4.20;;
70675;SDS011;59069;52.242;20.900;2022-07-05T09:53:53;6.80;;;3.58;;
70675;SDS011;59069;52.242;20.900;2022-07-05T09:56:23;10.68;;;4.35;;
70675;SDS011;59069;52.242;20.900;2022-07-05T09:58:51;10.93;;;4.43;;
70675;SDS011;59069;52.242;20.900;2022-07-05T10:01:27;11.02;;;4.75;;
70675;SDS011;59069;52.242;20.900;2022-07-05T10:03:58;8.63;;;4.33;;
70675;SDS011;59069;52.242;20.900;2022-07-05T10:06:27;10.38;;;4.40;;
70675;SDS011;59069;52.242;20.900;2022-07-05T10:08:53;10.85;;;4.55;;
70675;SDS011;59069;52.242;20.900;2022-07-05T10:11:19;8.27;;;4.07;;
70675;SDS011;59069;52.242;20.900;2022-07-05T10:13:49;9.85;;;4.20;;
70675;SDS011;59069;52.242;20.900;2022-07-05T10:16:16;8.33;;;3.90;;
70675;SDS011;59069;52.242;20.900;2022-07-05T10:18:43;10.52;;;4.25;;
70675;SDS011;59069;52.242;20.900;2022-07-05T10:21:12;9.05;;;3.72;;
70675;SDS011;59069;52.242;20.900;2022-07-05T10:23:41;7.82;;;3.97;;
70675;SDS011;59069;52.242;20.900;2022-07-05T10:26:09;8.65;;;4.10;;
70675;SDS011;59069;52.242;20.900;2022-07-05T10:28:37;7.03;;;3.87;;
70675;SDS011;59069;52.242;20.900;2022-07-05T10:31:05;7.30;;;3.92;;
70675;SDS011;59069;52.242;20.900;2022-07-05T10:33:33;8.52;;;4.07;;
70675;SDS011;59069;52.242;20.900;2022-07-05T10:35:59;7.65;;;3.92;;
70675;SDS011;59069;52.242;20.900;2022-07-05T10:38:25;7.37;;;3.90;;
70675;SDS011;59069;52.242;20.900;2022-07-05T10:40:54;7.30;;;3.97;;
70675;SDS011;59069;52.242;20.900;2022-07-05T10:43:22;7.75;;;3.63;;
70675;SDS011;59069;52.242;20.900;2022-07-05T10:45:48;8.75;;;3.97;;
70675;SDS011;59069;52.242;20.900;2022-07-05T10:48:16;8.10;;;3.53;;
70675;SDS011;59069;52.242;20.900;2022-07-05T10:53:21;9.80;;;3.75;;
70675;SDS011;59069;52.242;20.900;2022-07-05T10:58:31;7.35;;;2.88;;
70675;SDS011;59069;52.242;20.900;2022-07-05T11:03:47;6.83;;;2.77;;
70675;SDS011;59069;52.242;20.900;2022-07-05T11:06:24;6.15;;;3.20;;
70675;SDS011;59069;52.242;20.900;2022-07-05T11:11:26;6.70;;;2.97;;
70675;SDS011;59069;52.242;20.900;2022-07-05T11:13:52;5.88;;;2.95;;
70675;SDS011;59069;52.242;20.900;2022-07-05T11:18:44;5.57;;;2.88;;
70675;SDS011;59069;52.242;20.900;2022-07-05T11:21:16;6.03;;;2.80;;
70675;SDS011;59069;52.242;20.900;2022-07-05T11:23:46;7.20;;;2.90;;
70675;SDS011;59069;52.242;20.900;2022-07-05T11:26:12;7.77;;;3.20;;
70675;SDS011;59069;52.242;20.900;2022-07-05T11:28:42;6.40;;;2.92;;
70675;SDS011;59069;52.242;20.900;2022-07-05T11:31:11;7.53;;;2.90;;
70675;SDS011;59069;52.242;20.900;2022-07-05T11:36:18;6.35;;;3.13;;
70675;SDS011;59069;52.242;20.900;2022-07-05T11:41:41;9.07;;;2.92;;
70675;SDS011;59069;52.242;20.900;2022-07-05T11:44:07;7.68;;;2.80;;
70675;SDS011;59069;52.242;20.900;2022-07-05T11:46:33;6.47;;;2.67;;
70675;SDS011;59069;52.242;20.900;2022-07-05T11:48:59;5.88;;;2.67;;
70675;SDS011;59069;52.242;20.900;2022-07-05T11:51:25;6.93;;;3.20;;
70675;SDS011;59069;52.242;20.900;2022-07-05T11:53:50;5.68;;;3.10;;
70675;SDS011;59069;52.242;20.900;2022-07-05T11:56:16;5.90;;;2.80;;
70675;SDS011;59069;52.242;20.900;2022-07-05T11:58:42;6.60;;;2.87;;
70675;SDS011;59069;52.242;20.900;2022-07-05T12:01:07;6.80;;;3.28;;
70675;SDS011;59069;52.242;20.900;2022-07-05T12:03:33;7.23;;;2.93;;
70675;SDS011;59069;52.242;20.900;2022-07-05T12:06:08;5.78;;;3.10;;
70675;SDS011;59069;52.242;20.900;2022-07-05T12:08:35;9.45;;;3.25;;
70675;SDS011;59069;52.242;20.900;2022-07-05T12:11:00;6.53;;;3.00;;
70675;SDS011;59069;52.242;20.900;2022-07-05T12:13:48;6.20;;;3.00;;
70675;SDS011;59069;52.242;20.900;2022-07-05T12:16:15;7.78;;;3.58;;
70675;SDS011;59069;52.242;20.900;2022-07-05T12:21:21;6.28;;;2.80;;
70675;SDS011;59069;52.242;20.900;2022-07-05T12:23:47;7.30;;;3.00;;
70675;SDS011;59069;52.242;20.900;2022-07-05T12:26:17;5.57;;;2.70;;
70675;SDS011;59069;52.242;20.900;2022-07-05T12:28:44;6.93;;;3.22;;
70675;SDS011;59069;52.242;20.900;2022-07-05T12:31:17;6.80;;;3.13;;
70675;SDS011;59069;52.242;20.900;2022-07-05T12:33:49;6.13;;;2.90;;
70675;SDS011;59069;52.242;20.900;2022-07-05T12:36:16;6.93;;;3.00;;
70675;SDS011;59069;52.242;20.900;2022-07-05T12:38:42;5.20;;;2.77;;
70675;SDS011;59069;52.242;20.900;2022-07-05T12:41:08;6.32;;;2.97;;
70675;SDS011;59069;52.242;20.900;2022-07-05T12:43:53;6.43;;;2.88;;
70675;SDS011;59069;52.242;20.900;2022-07-05T12:46:20;6.22;;;2.90;;
70675;SDS011;59069;52.242;20.900;2022-07-05T12:49:00;8.00;;;2.83;;
70675;SDS011;59069;52.242;20.900;2022-07-05T12:51:35;7.25;;;2.75;;
70675;SDS011;59069;52.242;20.900;2022-07-05T12:54:03;5.83;;;2.43;;
70675;SDS011;59069;52.242;20.900;2022-07-05T12:56:50;7.10;;;2.63;;
70675;SDS011;59069;52.242;20.900;2022-07-05T12:59:35;6.35;;;2.95;;
70675;SDS011;59069;52.242;20.900;2022-07-05T13:02:02;5.80;;;2.47;;
70675;SDS011;59069;52.242;20.900;2022-07-05T13:04:28;6.45;;;2.70;;
70675;SDS011;59069;52.242;20.900;2022-07-05T13:06:55;6.60;;;2.40;;
70675;SDS011;59069;52.242;20.900;2022-07-05T13:14:50;5.90;;;2.40;;
70675;SDS011;59069;52.242;20.900;2022-07-05T13:17:20;7.43;;;2.20;;
70675;SDS011;59069;52.242;20.900;2022-07-05T13:19:48;5.32;;;2.10;;
70675;SDS011;59069;52.242;20.900;2022-07-05T13:22:14;7.65;;;2.30;;
70675;SDS011;59069;52.242;20.900;2022-07-05T13:24:40;6.97;;;2.10;;
70675;SDS011;59069;52.242;20.900;2022-07-05T13:27:07;6.25;;;1.85;;
70675;SDS011;59069;52.242;20.900;2022-07-05T13:29:33;7.72;;;2.60;;
70675;SDS011;59069;52.242;20.900;2022-07-05T13:31:59;6.57;;;2.38;;
70675;SDS011;59069;52.242;20.900;2022-07-05T13:34:24;7.67;;;1.97;;
70675;SDS011;59069;52.242;20.900;2022-07-05T13:36:51;6.40;;;2.05;;
70675;SDS011;59069;52.242;20.900;2022-07-05T13:39:18;7.63;;;2.13;;
70675;SDS011;59069;52.242;20.900;2022-07-05T13:41:47;6.28;;;2.03;;
70675;SDS011;59069;52.242;20.900;2022-07-05T13:44:13;5.55;;;2.00;;
70675;SDS011;59069;52.242;20.900;2022-07-05T13:46:38;6.77;;;1.77;;
70675;SDS011;59069;52.242;20.900;2022-07-05T13:49:04;6.75;;;2.08;;
70675;SDS011;59069;52.242;20.900;2022-07-05T13:51:29;6.47;;;2.10;;
70675;SDS011;59069;52.242;20.900;2022-07-05T13:53:55;5.57;;;1.90;;
70675;SDS011;59069;52.242;20.900;2022-07-05T13:56:21;5.95;;;2.10;;
70675;SDS011;59069;52.242;20.900;2022-07-05T13:58:46;7.03;;;1.87;;
70675;SDS011;59069;52.242;20.900;2022-07-05T14:01:12;5.70;;;1.90;;
70675;SDS011;59069;52.242;20.900;2022-07-05T14:03:37;6.43;;;2.07;;
70675;SDS011;59069;52.242;20.900;2022-07-05T14:06:02;5.37;;;2.20;;
70675;SDS011;59069;52.242;20.900;2022-07-05T14:08:28;5.43;;;1.80;;
70675;SDS011;59069;52.242;20.900;2022-07-05T14:10:54;6.80;;;2.13;;
70675;SDS011;59069;52.242;20.900;2022-07-05T14:13:22;6.53;;;2.30;;
70675;SDS011;59069;52.242;20.900;2022-07-05T14:15:49;6.30;;;2.22;;
70675;SDS011;59069;52.242;20.900;2022-07-05T14:18:15;5.95;;;2.22;;
70675;SDS011;59069;52.242;20.900;2022-07-05T14:20:41;7.85;;;2.40;;
70675;SDS011;59069;52.242;20.900;2022-07-05T14:23:08;6.70;;;2.08;;
70675;SDS011;59069;52.242;20.900;2022-07-05T14:25:39;8.20;;;2.50;;
70675;SDS011;59069;52.242;20.900;2022-07-05T14:28:04;14.73;;;2.50;;
70675;SDS011;59069;52.242;20.900;2022-07-05T14:30:33;7.30;;;1.88;;
70675;SDS011;59069;52.242;20.900;2022-07-05T14:32:59;7.35;;;2.65;;
70675;SDS011;59069;52.242;20.900;2022-07-05T14:35:24;8.63;;;2.63;;
70675;SDS011;59069;52.242;20.900;2022-07-05T14:37:50;7.23;;;2.90;;
70675;SDS011;59069;52.242;20.900;2022-07-05T14:40:15;9.20;;;3.23;;
70675;SDS011;59069;52.242;20.900;2022-07-05T14:42:41;7.38;;;3.20;;
70675;SDS011;59069;52.242;20.900;2022-07-05T14:45:06;7.63;;;3.43;;
70675;SDS011;59069;52.242;20.900;2022-07-05T14:47:32;8.25;;;3.00;;
70675;SDS011;59069;52.242;20.900;2022-07-05T14:49:57;8.37;;;3.50;;
70675;SDS011;59069;52.242;20.900;2022-07-05T14:52:23;9.03;;;3.30;;
70675;SDS011;59069;52.242;20.900;2022-07-05T14:54:48;9.50;;;3.70;;
70675;SDS011;59069;52.242;20.900;2022-07-05T14:57:14;8.48;;;3.20;;
70675;SDS011;59069;52.242;20.900;2022-07-05T14:59:39;6.57;;;2.57;;